sensor_id;sensor_type;location;lat;lon;timestamp;temperature;humidity
63260;DHT22;49390;51.380;0.098;2023-02-15T00:00:13;4.30;99.90
63260;DHT22;49390;51.380;0.098;2023-02-15T00:03:00;4.30;99.90
63260;DHT22;49390;51.380;0.098;2023-02-15T00:05:30;4.30;99.90
63260;DHT22;49390;51.380;0.098;2023-02-15T00:07:58;4.30;99.90
63260;DHT22;49390;51.380;0.098;2023-02-15T00:10:26;4.30;99.90
63260;DHT22;49390;51.380;0.098;2023-02-15T00:12:54;4.30;99.90
63260;DHT22;49390;51.380;0.098;2023-02-15T00:15:22;4.30;99.90
63260;DHT22;49390;51.380;0.098;2023-02-15T00:17:50;4.40;99.90
63260;DHT22;49390;51.380;0.098;2023-02-15T00:20:18;4.50;99.90
63260;DHT22;49390;51.380;0.098;2023-02-15T00:22:46;4.70;99.90
63260;DHT22;49390;51.380;0.098;2023-02-15T00:25:14;4.90;99.90
63260;DHT22;49390;51.380;0.098;2023-02-15T00:27:42;5.10;99.90
63260;DHT22;49390;51.380;0.098;2023-02-15T00:30:11;5.30;99.90
63260;DHT22;49390;51.380;0.098;2023-02-15T00:32:39;5.50;99.90
63260;DHT22;49390;51.380;0.098;2023-02-15T00:35:07;5.60;99.90
63260;DHT22;49390;51.380;0.098;2023-02-15T00:37:35;5.70;99.90
63260;DHT22;49390;51.380;0.098;2023-02-15T00:40:03;5.80;99.90
63260;DHT22;49390;51.380;0.098;2023-02-15T00:42:32;5.80;99.90
63260;DHT22;49390;51.380;0.098;2023-02-15T00:45:00;5.90;99.90
63260;DHT22;49390;51.380;0.098;2023-02-15T00:47:31;5.90;99.90
63260;DHT22;49390;51.380;0.098;2023-02-15T00:49:59;6.00;99.90
63260;DHT22;49390;51.380;0.098;2023-02-15T00:52:27;6.10;99.90
63260;DHT22;49390;51.380;0.098;2023-02-15T00:54:56;6.10;99.90
63260;DHT22;49390;51.380;0.098;2023-02-15T00:57:24;6.20;99.90
63260;DHT22;49390;51.380;0.098;2023-02-15T00:59:52;6.30;99.90
63260;DHT22;49390;51.380;0.098;2023-02-15T01:02:20;6.30;99.90
63260;DHT22;49390;51.380;0.098;2023-02-15T01:04:48;6.40;99.90
63260;DHT22;49390;51.380;0.098;2023-02-15T01:07:16;6.40;99.90
63260;DHT22;49390;51.380;0.098;2023-02-15T01:09:44;6.40;99.90
63260;DHT22;49390;51.380;0.098;2023-02-15T01:12:12;6.50;99.90
63260;DHT22;49390;51.380;0.098;2023-02-15T01:14:40;6.50;99.90
63260;DHT22;49390;51.380;0.098;2023-02-15T01:17:08;6.50;99.90
63260;DHT22;49390;51.380;0.098;2023-02-15T01:19:36;6.40;99.90
63260;DHT22;49390;51.380;0.098;2023-02-15T01:22:03;6.20;99.90
63260;DHT22;49390;51.380;0.098;2023-02-15T01:24:35;6.00;99.90
63260;DHT22;49390;51.380;0.098;2023-02-15T01:27:03;5.90;99.90
63260;DHT22;49390;51.380;0.098;2023-02-15T01:29:31;5.70;99.90
63260;DHT22;49390;51.380;0.098;2023-02-15T01:31:59;5.60;99.90
63260;DHT22;49390;51.380;0.098;2023-02-15T01:34:29;5.50;99.90
63260;DHT22;49390;51.380;0.098;2023-02-15T01:36:57;5.60;99.90
63260;DHT22;49390;51.380;0.098;2023-02-15T01:39:25;5.60;99.90
63260;DHT22;49390;51.380;0.098;2023-02-15T01:41:53;5.60;99.90
63260;DHT22;49390;51.380;0.098;2023-02-15T01:47:38;5.70;99.90
63260;DHT22;49390;51.380;0.098;2023-02-15T01:55:20;5.90;99.90
63260;DHT22;49390;51.380;0.098;2023-02-15T01:57:49;6.00;99.90
63260;DHT22;49390;51.380;0.098;2023-02-15T02:00:19;6.10;99.90
63260;DHT22;49390;51.380;0.098;2023-02-15T02:02:52;6.20;99.90
63260;DHT22;49390;51.380;0.098;2023-02-15T02:05:25;6.20;99.90
63260;DHT22;49390;51.380;0.098;2023-02-15T02:07:56;6.30;99.90
63260;DHT22;49390;51.380;0.098;2023-02-15T02:10:25;6.30;99.90
63260;DHT22;49390;51.380;0.098;2023-02-15T02:12:58;6.40;99.90
63260;DHT22;49390;51.380;0.098;2023-02-15T02:18:41;6.40;99.90
63260;DHT22;49390;51.380;0.098;2023-02-15T02:24:23;6.30;99.90
63260;DHT22;49390;51.380;0.098;2023-02-15T02:35:54;6.10;99.90
63260;DHT22;49390;51.380;0.098;2023-02-15T02:41:38;6.20;99.90
63260;DHT22;49390;51.380;0.098;2023-02-15T02:46:53;6.30;99.90
63260;DHT22;49390;51.380;0.098;2023-02-15T02:52:03;6.30;99.90
63260;DHT22;49390;51.380;0.098;2023-02-15T02:54:35;6.30;99.90
63260;DHT22;49390;51.380;0.098;2023-02-15T02:57:05;6.30;99.90
63260;DHT22;49390;51.380;0.098;2023-02-15T02:59:41;6.30;99.90
63260;DHT22;49390;51.380;0.098;2023-02-15T03:02:21;6.40;99.90
63260;DHT22;49390;51.380;0.098;2023-02-15T03:04:59;6.40;99.90
63260;DHT22;49390;51.380;0.098;2023-02-15T03:07:31;6.40;99.90
63260;DHT22;49390;51.380;0.098;2023-02-15T03:10:04;6.20;99.90
63260;DHT22;49390;51.380;0.098;2023-02-15T03:12:37;6.10;99.90
63260;DHT22;49390;51.380;0.098;2023-02-15T03:15:15;6.00;99.90
63260;DHT22;49390;51.380;0.098;2023-02-15T03:17:46;5.80;99.90
63260;DHT22;49390;51.380;0.098;2023-02-15T03:20:22;5.80;99.90
63260;DHT22;49390;51.380;0.098;2023-02-15T03:23:03;5.70;99.90
63260;DHT22;49390;51.380;0.098;2023-02-15T03:25:36;5.70;99.90
63260;DHT22;49390;51.380;0.098;2023-02-15T03:28:12;5.80;99.90
63260;DHT22;49390;51.380;0.098;2023-02-15T03:30:45;5.90;99.90
63260;DHT22;49390;51.380;0.098;2023-02-15T03:33:15;6.00;99.90
63260;DHT22;49390;51.380;0.098;2023-02-15T03:36:08;6.00;99.90
63260;DHT22;49390;51.380;0.098;2023-02-15T03:38:44;6.10;99.90
63260;DHT22;49390;51.380;0.098;2023-02-15T03:41:17;6.20;99.90
63260;DHT22;49390;51.380;0.098;2023-02-15T03:48:56;6.30;99.90
63260;DHT22;49390;51.380;0.098;2023-02-15T03:51:31;6.40;99.90
63260;DHT22;49390;51.380;0.098;2023-02-15T03:54:16;6.40;99.90
63260;DHT22;49390;51.380;0.098;2023-02-15T03:57:07;6.40;99.90
63260;DHT22;49390;51.380;0.098;2023-02-15T03:59:57;6.40;99.90
63260;DHT22;49390;51.380;0.098;2023-02-15T04:05:20;6.40;99.90
63260;DHT22;49390;51.380;0.098;2023-02-15T04:07:48;6.40;99.90
63260;DHT22;49390;51.380;0.098;2023-02-15T04:10:16;6.40;99.90
63260;DHT22;49390;51.380;0.098;2023-02-15T04:13:02;6.40;99.90
63260;DHT22;49390;51.380;0.098;2023-02-15T04:15:30;6.40;99.90
63260;DHT22;49390;51.380;0.098;2023-02-15T04:18:17;6.40;99.90
63260;DHT22;49390;51.380;0.098;2023-02-15T04:20:45;6.40;99.90
63260;DHT22;49390;51.380;0.098;2023-02-15T04:23:32;6.40;99.90
63260;DHT22;49390;51.380;0.098;2023-02-15T04:26:18;6.40;99.90
63260;DHT22;49390;51.380;0.098;2023-02-15T04:28:46;6.50;99.90
63260;DHT22;49390;51.380;0.098;2023-02-15T04:31:14;6.50;99.90
63260;DHT22;49390;51.380;0.098;2023-02-15T04:33:42;6.40;99.90
63260;DHT22;49390;51.380;0.098;2023-02-15T04:36:11;6.30;99.90
63260;DHT22;49390;51.380;0.098;2023-02-15T04:38:39;6.20;99.90
63260;DHT22;49390;51.380;0.098;2023-02-15T04:41:07;6.20;99.90
63260;DHT22;49390;51.380;0.098;2023-02-15T04:43:35;6.20;99.90
63260;DHT22;49390;51.380;0.098;2023-02-15T04:46:03;6.20;99.90
63260;DHT22;49390;51.380;0.098;2023-02-15T04:48:32;6.20;99.90
63260;DHT22;49390;51.380;0.098;2023-02-15T04:51:04;6.20;99.90
63260;DHT22;49390;51.380;0.098;2023-02-15T04:53:33;6.20;99.90
63260;DHT22;49390;51.380;0.098;2023-02-15T04:56:00;6.20;99.90
63260;DHT22;49390;51.380;0.098;2023-02-15T04:58:29;6.20;99.90
63260;DHT22;49390;51.380;0.098;2023-02-15T05:00:57;6.10;99.90
63260;DHT22;49390;51.380;0.098;2023-02-15T05:03:26;6.10;99.90
63260;DHT22;49390;51.380;0.098;2023-02-15T05:05:54;6.20;99.90
63260;DHT22;49390;51.380;0.098;2023-02-15T05:08:22;6.20;99.90
63260;DHT22;49390;51.380;0.098;2023-02-15T05:10:50;6.20;99.90
63260;DHT22;49390;51.380;0.098;2023-02-15T05:13:18;6.30;99.90
63260;DHT22;49390;51.380;0.098;2023-02-15T05:15:51;6.30;99.90
63260;DHT22;49390;51.380;0.098;2023-02-15T05:18:20;6.30;99.90
63260;DHT22;49390;51.380;0.098;2023-02-15T05:20:49;6.30;99.90
63260;DHT22;49390;51.380;0.098;2023-02-15T05:23:17;6.30;99.90
63260;DHT22;49390;51.380;0.098;2023-02-15T05:25:51;6.30;99.90
63260;DHT22;49390;51.380;0.098;2023-02-15T05:28:38;6.30;99.90
63260;DHT22;49390;51.380;0.098;2023-02-15T05:31:10;6.30;99.90
63260;DHT22;49390;51.380;0.098;2023-02-15T05:33:39;6.20;99.90
63260;DHT22;49390;51.380;0.098;2023-02-15T05:36:07;6.10;99.90
63260;DHT22;49390;51.380;0.098;2023-02-15T05:38:37;6.10;99.90
63260;DHT22;49390;51.380;0.098;2023-02-15T05:41:06;6.00;99.90
63260;DHT22;49390;51.380;0.098;2023-02-15T05:43:35;6.00;99.90
63260;DHT22;49390;51.380;0.098;2023-02-15T05:46:03;6.00;99.90
63260;DHT22;49390;51.380;0.098;2023-02-15T05:48:32;6.00;99.90
63260;DHT22;49390;51.380;0.098;2023-02-15T05:51:08;6.00;99.90
63260;DHT22;49390;51.380;0.098;2023-02-15T05:53:38;6.00;99.90
63260;DHT22;49390;51.380;0.098;2023-02-15T05:56:08;6.00;99.90
63260;DHT22;49390;51.380;0.098;2023-02-15T05:58:38;6.00;99.90
63260;DHT22;49390;51.380;0.098;2023-02-15T06:01:08;6.10;99.90
63260;DHT22;49390;51.380;0.098;2023-02-15T06:03:37;6.10;99.90
63260;DHT22;49390;51.380;0.098;2023-02-15T06:06:05;6.10;99.90
63260;DHT22;49390;51.380;0.098;2023-02-15T06:08:35;6.20;99.90
63260;DHT22;49390;51.380;0.098;2023-02-15T06:11:04;6.20;99.90
63260;DHT22;49390;51.380;0.098;2023-02-15T06:13:32;6.30;99.90
63260;DHT22;49390;51.380;0.098;2023-02-15T06:16:05;6.20;99.90
63260;DHT22;49390;51.380;0.098;2023-02-15T06:18:34;6.30;99.90
63260;DHT22;49390;51.380;0.098;2023-02-15T06:21:01;6.40;99.90
63260;DHT22;49390;51.380;0.098;2023-02-15T06:23:30;6.40;99.90
63260;DHT22;49390;51.380;0.098;2023-02-15T06:25:57;6.40;99.90
63260;DHT22;49390;51.380;0.098;2023-02-15T06:28:28;6.40;99.90
63260;DHT22;49390;51.380;0.098;2023-02-15T06:30:55;6.40;99.90
63260;DHT22;49390;51.380;0.098;2023-02-15T06:33:24;6.50;99.90
63260;DHT22;49390;51.380;0.098;2023-02-15T06:35:52;6.50;99.90
63260;DHT22;49390;51.380;0.098;2023-02-15T06:38:20;6.50;99.90
63260;DHT22;49390;51.380;0.098;2023-02-15T06:40:48;6.50;99.90
63260;DHT22;49390;51.380;0.098;2023-02-15T06:43:16;6.50;99.90
63260;DHT22;49390;51.380;0.098;2023-02-15T06:45:44;6.50;99.90
63260;DHT22;49390;51.380;0.098;2023-02-15T06:48:12;6.50;99.90
63260;DHT22;49390;51.380;0.098;2023-02-15T06:50:40;6.50;99.90
63260;DHT22;49390;51.380;0.098;2023-02-15T06:53:08;6.40;99.90
63260;DHT22;49390;51.380;0.098;2023-02-15T06:55:35;6.40;99.90
63260;DHT22;49390;51.380;0.098;2023-02-15T06:58:04;6.50;99.90
63260;DHT22;49390;51.380;0.098;2023-02-15T07:00:31;6.50;99.90
63260;DHT22;49390;51.380;0.098;2023-02-15T07:03:00;6.50;99.90
63260;DHT22;49390;51.380;0.098;2023-02-15T07:05:33;6.40;99.90
63260;DHT22;49390;51.380;0.098;2023-02-15T07:08:01;6.30;99.90
63260;DHT22;49390;51.380;0.098;2023-02-15T07:10:30;6.30;99.90
63260;DHT22;49390;51.380;0.098;2023-02-15T07:12:58;6.30;99.90
63260;DHT22;49390;51.380;0.098;2023-02-15T07:15:26;6.20;99.90
63260;DHT22;49390;51.380;0.098;2023-02-15T07:17:54;6.30;99.90
63260;DHT22;49390;51.380;0.098;2023-02-15T07:20:23;6.20;99.90
63260;DHT22;49390;51.380;0.098;2023-02-15T07:22:51;6.20;99.90
63260;DHT22;49390;51.380;0.098;2023-02-15T07:25:19;6.30;99.90
63260;DHT22;49390;51.380;0.098;2023-02-15T07:27:56;6.30;99.90
63260;DHT22;49390;51.380;0.098;2023-02-15T07:30:24;6.40;99.90
63260;DHT22;49390;51.380;0.098;2023-02-15T07:32:58;6.50;99.90
63260;DHT22;49390;51.380;0.098;2023-02-15T07:35:59;6.60;99.90
63260;DHT22;49390;51.380;0.098;2023-02-15T07:38:39;6.60;99.90
63260;DHT22;49390;51.380;0.098;2023-02-15T07:41:09;6.70;99.90
63260;DHT22;49390;51.380;0.098;2023-02-15T07:43:40;6.70;99.90
63260;DHT22;49390;51.380;0.098;2023-02-15T07:46:14;6.80;99.90
63260;DHT22;49390;51.380;0.098;2023-02-15T07:48:43;6.80;99.90
63260;DHT22;49390;51.380;0.098;2023-02-15T07:51:12;6.90;99.90
63260;DHT22;49390;51.380;0.098;2023-02-15T07:53:41;6.90;99.90
63260;DHT22;49390;51.380;0.098;2023-02-15T07:56:13;6.90;99.90
63260;DHT22;49390;51.380;0.098;2023-02-15T07:58:42;7.00;99.90
63260;DHT22;49390;51.380;0.098;2023-02-15T08:01:21;7.00;99.90
63260;DHT22;49390;51.380;0.098;2023-02-15T08:03:50;7.00;99.90
63260;DHT22;49390;51.380;0.098;2023-02-15T08:06:19;7.10;99.90
63260;DHT22;49390;51.380;0.098;2023-02-15T08:08:48;7.10;99.90
63260;DHT22;49390;51.380;0.098;2023-02-15T08:11:21;7.10;99.90
63260;DHT22;49390;51.380;0.098;2023-02-15T08:16:29;7.10;99.90
63260;DHT22;49390;51.380;0.098;2023-02-15T08:19:00;7.20;99.90
63260;DHT22;49390;51.380;0.098;2023-02-15T08:21:29;7.30;99.90
63260;DHT22;49390;51.380;0.098;2023-02-15T08:23:58;7.40;99.90
63260;DHT22;49390;51.380;0.098;2023-02-15T08:26:27;7.40;99.90
63260;DHT22;49390;51.380;0.098;2023-02-15T08:28:56;7.50;99.90
63260;DHT22;49390;51.380;0.098;2023-02-15T08:31:24;7.60;99.90
63260;DHT22;49390;51.380;0.098;2023-02-15T08:33:53;7.70;99.90
63260;DHT22;49390;51.380;0.098;2023-02-15T08:36:24;7.70;99.90
63260;DHT22;49390;51.380;0.098;2023-02-15T08:38:52;7.80;99.90
63260;DHT22;49390;51.380;0.098;2023-02-15T08:41:26;7.90;99.90
63260;DHT22;49390;51.380;0.098;2023-02-15T08:43:56;7.90;99.90
63260;DHT22;49390;51.380;0.098;2023-02-15T08:46:26;8.00;99.90
63260;DHT22;49390;51.380;0.098;2023-02-15T08:48:54;8.00;99.90
63260;DHT22;49390;51.380;0.098;2023-02-15T08:51:24;8.00;99.90
63260;DHT22;49390;51.380;0.098;2023-02-15T08:53:55;8.10;99.90
63260;DHT22;49390;51.380;0.098;2023-02-15T08:56:26;8.10;99.90
63260;DHT22;49390;51.380;0.098;2023-02-15T08:58:54;8.10;99.90
63260;DHT22;49390;51.380;0.098;2023-02-15T09:01:26;8.20;99.90
63260;DHT22;49390;51.380;0.098;2023-02-15T09:03:56;8.20;99.90
63260;DHT22;49390;51.380;0.098;2023-02-15T09:06:24;8.30;99.90
63260;DHT22;49390;51.380;0.098;2023-02-15T09:08:54;8.30;99.90
63260;DHT22;49390;51.380;0.098;2023-02-15T09:11:27;8.40;99.90
63260;DHT22;49390;51.380;0.098;2023-02-15T09:13:58;8.60;99.90
63260;DHT22;49390;51.380;0.098;2023-02-15T09:16:28;8.70;99.90
63260;DHT22;49390;51.380;0.098;2023-02-15T09:18:58;8.90;99.90
63260;DHT22;49390;51.380;0.098;2023-02-15T09:21:26;9.20;99.90
63260;DHT22;49390;51.380;0.098;2023-02-15T09:24:00;9.40;99.90
63260;DHT22;49390;51.380;0.098;2023-02-15T09:26:30;9.60;99.90
63260;DHT22;49390;51.380;0.098;2023-02-15T09:29:00;9.80;99.90
63260;DHT22;49390;51.380;0.098;2023-02-15T09:31:40;9.90;99.90
63260;DHT22;49390;51.380;0.098;2023-02-15T09:34:09;10.10;99.90
63260;DHT22;49390;51.380;0.098;2023-02-15T09:36:39;10.30;99.90
63260;DHT22;49390;51.380;0.098;2023-02-15T09:39:12;10.40;99.90
63260;DHT22;49390;51.380;0.098;2023-02-15T09:44:42;10.60;99.90
63260;DHT22;49390;51.380;0.098;2023-02-15T10:06:29;11.20;99.90
63260;DHT22;49390;51.380;0.098;2023-02-15T10:15:14;11.50;99.90
63260;DHT22;49390;51.380;0.098;2023-02-15T10:23:34;11.80;99.90
63260;DHT22;49390;51.380;0.098;2023-02-15T10:26:21;11.80;99.90
63260;DHT22;49390;51.380;0.098;2023-02-15T10:29:03;11.80;99.90
63260;DHT22;49390;51.380;0.098;2023-02-15T10:34:23;11.80;99.90
63260;DHT22;49390;51.380;0.098;2023-02-15T10:37:29;11.80;99.90
63260;DHT22;49390;51.380;0.098;2023-02-15T10:40:08;11.80;99.90
63260;DHT22;49390;51.380;0.098;2023-02-15T10:43:01;11.80;99.90
63260;DHT22;49390;51.380;0.098;2023-02-15T10:48:57;11.80;99.90
63260;DHT22;49390;51.380;0.098;2023-02-15T10:57:06;11.70;99.90
63260;DHT22;49390;51.380;0.098;2023-02-15T10:59:45;11.70;99.90
63260;DHT22;49390;51.380;0.098;2023-02-15T11:02:22;11.70;99.90
63260;DHT22;49390;51.380;0.098;2023-02-15T11:07:52;11.70;99.90
63260;DHT22;49390;51.380;0.098;2023-02-15T11:13:08;11.90;99.90
63260;DHT22;49390;51.380;0.098;2023-02-15T11:21:17;12.20;99.90
63260;DHT22;49390;51.380;0.098;2023-02-15T11:23:48;12.30;99.90
63260;DHT22;49390;51.380;0.098;2023-02-15T11:28:57;12.50;98.20
63260;DHT22;49390;51.380;0.098;2023-02-15T11:31:34;12.50;97.30
63260;DHT22;49390;51.380;0.098;2023-02-15T11:34:47;12.70;96.10
63260;DHT22;49390;51.380;0.098;2023-02-15T11:37:12;12.70;94.90
63260;DHT22;49390;51.380;0.098;2023-02-15T11:39:42;12.80;94.10
63260;DHT22;49390;51.380;0.098;2023-02-15T11:42:16;12.90;94.10
63260;DHT22;49390;51.380;0.098;2023-02-15T11:45:22;13.00;93.70
63260;DHT22;49390;51.380;0.098;2023-02-15T11:47:54;13.10;92.60
63260;DHT22;49390;51.380;0.098;2023-02-15T11:50:32;13.10;92.10
63260;DHT22;49390;51.380;0.098;2023-02-15T11:53:09;13.20;91.90
63260;DHT22;49390;51.380;0.098;2023-02-15T11:55:40;13.30;91.50
63260;DHT22;49390;51.380;0.098;2023-02-15T11:58:23;13.40;90.50
63260;DHT22;49390;51.380;0.098;2023-02-15T12:00:58;13.40;89.60
63260;DHT22;49390;51.380;0.098;2023-02-15T12:06:04;13.60;87.00
63260;DHT22;49390;51.380;0.098;2023-02-15T12:08:41;13.60;86.40
63260;DHT22;49390;51.380;0.098;2023-02-15T12:11:17;13.70;86.60
63260;DHT22;49390;51.380;0.098;2023-02-15T12:13:55;13.80;86.20
63260;DHT22;49390;51.380;0.098;2023-02-15T12:16:25;13.90;86.10
63260;DHT22;49390;51.380;0.098;2023-02-15T12:18:56;13.90;86.10
63260;DHT22;49390;51.380;0.098;2023-02-15T12:25:41;14.10;82.30
63260;DHT22;49390;51.380;0.098;2023-02-15T12:28:32;14.10;81.80
63260;DHT22;49390;51.380;0.098;2023-02-15T12:31:03;14.10;81.20
63260;DHT22;49390;51.380;0.098;2023-02-15T12:33:36;14.20;81.30
63260;DHT22;49390;51.380;0.098;2023-02-15T12:36:22;14.30;79.70
63260;DHT22;49390;51.380;0.098;2023-02-15T12:41:37;14.30;78.50
63260;DHT22;49390;51.380;0.098;2023-02-15T12:46:41;14.40;77.40
63260;DHT22;49390;51.380;0.098;2023-02-15T12:52:05;14.50;76.80
63260;DHT22;49390;51.380;0.098;2023-02-15T12:57:33;14.70;76.20
63260;DHT22;49390;51.380;0.098;2023-02-15T13:00:28;14.70;74.90
63260;DHT22;49390;51.380;0.098;2023-02-15T13:02:57;14.80;75.00
63260;DHT22;49390;51.380;0.098;2023-02-15T13:05:37;14.80;74.80
63260;DHT22;49390;51.380;0.098;2023-02-15T13:08:13;14.90;74.30
63260;DHT22;49390;51.380;0.098;2023-02-15T13:13:27;15.00;73.80
63260;DHT22;49390;51.380;0.098;2023-02-15T13:16:00;15.00;73.80
63260;DHT22;49390;51.380;0.098;2023-02-15T13:18:35;15.10;73.80
63260;DHT22;49390;51.380;0.098;2023-02-15T13:21:18;15.20;73.70
63260;DHT22;49390;51.380;0.098;2023-02-15T13:23:53;15.20;73.60
63260;DHT22;49390;51.380;0.098;2023-02-15T13:26:29;15.30;73.30
63260;DHT22;49390;51.380;0.098;2023-02-15T13:29:05;15.30;72.50
63260;DHT22;49390;51.380;0.098;2023-02-15T13:31:36;15.40;71.90
63260;DHT22;49390;51.380;0.098;2023-02-15T13:34:16;15.40;71.60
63260;DHT22;49390;51.380;0.098;2023-02-15T13:37:33;15.40;70.60
63260;DHT22;49390;51.380;0.098;2023-02-15T13:40:35;15.30;70.60
63260;DHT22;49390;51.380;0.098;2023-02-15T13:43:27;15.30;70.70
63260;DHT22;49390;51.380;0.098;2023-02-15T13:46:27;15.30;70.10
63260;DHT22;49390;51.380;0.098;2023-02-15T13:52:25;15.40;69.70
63260;DHT22;49390;51.380;0.098;2023-02-15T13:55:47;15.40;69.10
63260;DHT22;49390;51.380;0.098;2023-02-15T14:01:11;15.40;69.50
63260;DHT22;49390;51.380;0.098;2023-02-15T14:06:46;15.50;69.30
63260;DHT22;49390;51.380;0.098;2023-02-15T14:09:24;15.40;69.20
63260;DHT22;49390;51.380;0.098;2023-02-15T14:12:12;15.40;69.10
63260;DHT22;49390;51.380;0.098;2023-02-15T14:21:43;15.40;68.70
63260;DHT22;49390;51.380;0.098;2023-02-15T14:26:26;15.40;68.30
63260;DHT22;49390;51.380;0.098;2023-02-15T14:32:00;15.50;68.70
63260;DHT22;49390;51.380;0.098;2023-02-15T14:35:04;15.50;68.10
63260;DHT22;49390;51.380;0.098;2023-02-15T14:37:47;15.50;67.50
63260;DHT22;49390;51.380;0.098;2023-02-15T14:49:26;15.40;67.00
63260;DHT22;49390;51.380;0.098;2023-02-15T14:52:02;15.40;67.00
63260;DHT22;49390;51.380;0.098;2023-02-15T15:02:21;15.30;67.20
63260;DHT22;49390;51.380;0.098;2023-02-15T15:05:06;15.30;67.40
63260;DHT22;49390;51.380;0.098;2023-02-15T15:07:52;15.20;67.20
63260;DHT22;49390;51.380;0.098;2023-02-15T15:12:59;15.20;67.60
63260;DHT22;49390;51.380;0.098;2023-02-15T15:15:47;15.20;68.20
63260;DHT22;49390;51.380;0.098;2023-02-15T15:18:46;15.20;68.40
63260;DHT22;49390;51.380;0.098;2023-02-15T15:49:59;14.70;69.60
63260;DHT22;49390;51.380;0.098;2023-02-15T15:52:28;14.60;69.90
63260;DHT22;49390;51.380;0.098;2023-02-15T15:55:04;14.60;70.00
63260;DHT22;49390;51.380;0.098;2023-02-15T15:57:37;14.50;70.20
63260;DHT22;49390;51.380;0.098;2023-02-15T16:02:54;14.40;70.30
63260;DHT22;49390;51.380;0.098;2023-02-15T16:05:25;14.40;70.50
63260;DHT22;49390;51.380;0.098;2023-02-15T16:07:53;14.30;70.50
63260;DHT22;49390;51.380;0.098;2023-02-15T16:10:26;14.30;70.50
63260;DHT22;49390;51.380;0.098;2023-02-15T16:12:55;14.20;70.30
63260;DHT22;49390;51.380;0.098;2023-02-15T16:15:27;14.10;70.50
63260;DHT22;49390;51.380;0.098;2023-02-15T16:17:58;14.10;70.30
63260;DHT22;49390;51.380;0.098;2023-02-15T16:20:34;14.00;70.50
63260;DHT22;49390;51.380;0.098;2023-02-15T16:28:34;13.80;71.00
63260;DHT22;49390;51.380;0.098;2023-02-15T16:33:38;13.70;71.50
63260;DHT22;49390;51.380;0.098;2023-02-15T16:36:11;13.70;71.70
63260;DHT22;49390;51.380;0.098;2023-02-15T16:41:17;13.50;71.90
63260;DHT22;49390;51.380;0.098;2023-02-15T16:43:50;13.50;72.20
63260;DHT22;49390;51.380;0.098;2023-02-15T16:46:26;13.40;72.40
63260;DHT22;49390;51.380;0.098;2023-02-15T16:48:57;13.30;72.70
63260;DHT22;49390;51.380;0.098;2023-02-15T16:51:28;13.20;73.10
63260;DHT22;49390;51.380;0.098;2023-02-15T16:54:05;13.20;73.50
63260;DHT22;49390;51.380;0.098;2023-02-15T16:56:34;13.10;73.80
63260;DHT22;49390;51.380;0.098;2023-02-15T16:59:02;13.00;74.10
63260;DHT22;49390;51.380;0.098;2023-02-15T17:01:32;12.90;74.60
63260;DHT22;49390;51.380;0.098;2023-02-15T17:06:39;12.80;75.70
63260;DHT22;49390;51.380;0.098;2023-02-15T17:09:16;12.70;76.20
63260;DHT22;49390;51.380;0.098;2023-02-15T17:11:47;12.60;76.80
63260;DHT22;49390;51.380;0.098;2023-02-15T17:14:20;12.60;77.60
63260;DHT22;49390;51.380;0.098;2023-02-15T17:17:12;12.50;78.20
63260;DHT22;49390;51.380;0.098;2023-02-15T17:19:50;12.40;79.00
63260;DHT22;49390;51.380;0.098;2023-02-15T17:22:22;12.40;79.80
63260;DHT22;49390;51.380;0.098;2023-02-15T17:24:58;12.30;80.40
63260;DHT22;49390;51.380;0.098;2023-02-15T17:27:29;12.30;81.30
63260;DHT22;49390;51.380;0.098;2023-02-15T17:30:01;12.20;82.10
63260;DHT22;49390;51.380;0.098;2023-02-15T17:32:31;12.20;82.90
63260;DHT22;49390;51.380;0.098;2023-02-15T17:35:17;12.20;83.90
63260;DHT22;49390;51.380;0.098;2023-02-15T17:37:48;12.10;84.90
63260;DHT22;49390;51.380;0.098;2023-02-15T17:40:18;12.10;85.70
63260;DHT22;49390;51.380;0.098;2023-02-15T17:42:47;12.10;86.80
63260;DHT22;49390;51.380;0.098;2023-02-15T17:45:16;12.00;87.90
63260;DHT22;49390;51.380;0.098;2023-02-15T17:47:46;12.00;89.20
63260;DHT22;49390;51.380;0.098;2023-02-15T17:50:26;11.90;90.30
63260;DHT22;49390;51.380;0.098;2023-02-15T17:52:58;11.80;91.10
63260;DHT22;49390;51.380;0.098;2023-02-15T17:55:28;11.80;91.80
63260;DHT22;49390;51.380;0.098;2023-02-15T17:58:07;11.80;92.60
63260;DHT22;49390;51.380;0.098;2023-02-15T18:00:42;11.80;93.60
63260;DHT22;49390;51.380;0.098;2023-02-15T18:06:29;11.70;94.80
63260;DHT22;49390;51.380;0.098;2023-02-15T18:09:18;11.70;95.40
63260;DHT22;49390;51.380;0.098;2023-02-15T18:12:28;11.60;96.00
63260;DHT22;49390;51.380;0.098;2023-02-15T18:14:57;11.60;96.50
63260;DHT22;49390;51.380;0.098;2023-02-15T18:17:34;11.60;96.90
63260;DHT22;49390;51.380;0.098;2023-02-15T18:20:16;11.60;97.40
63260;DHT22;49390;51.380;0.098;2023-02-15T18:22:45;11.60;97.60
63260;DHT22;49390;51.380;0.098;2023-02-15T18:25:14;11.60;97.90
63260;DHT22;49390;51.380;0.098;2023-02-15T18:27:43;11.60;98.10
63260;DHT22;49390;51.380;0.098;2023-02-15T18:30:20;11.60;98.50
63260;DHT22;49390;51.380;0.098;2023-02-15T18:32:51;11.60;98.70
63260;DHT22;49390;51.380;0.098;2023-02-15T18:35:23;11.50;98.90
63260;DHT22;49390;51.380;0.098;2023-02-15T18:37:52;11.50;99.10
63260;DHT22;49390;51.380;0.098;2023-02-15T18:40:25;11.60;99.50
63260;DHT22;49390;51.380;0.098;2023-02-15T18:42:54;11.50;99.80
63260;DHT22;49390;51.380;0.098;2023-02-15T18:45:25;11.50;99.90
63260;DHT22;49390;51.380;0.098;2023-02-15T18:47:55;11.50;99.90
63260;DHT22;49390;51.380;0.098;2023-02-15T18:50:30;11.50;99.90
63260;DHT22;49390;51.380;0.098;2023-02-15T18:52:58;11.50;99.90
63260;DHT22;49390;51.380;0.098;2023-02-15T18:55:27;11.40;99.90
63260;DHT22;49390;51.380;0.098;2023-02-15T18:57:56;11.40;99.90
63260;DHT22;49390;51.380;0.098;2023-02-15T19:00:32;11.40;99.90
63260;DHT22;49390;51.380;0.098;2023-02-15T19:03:01;11.30;99.90
63260;DHT22;49390;51.380;0.098;2023-02-15T19:05:29;11.30;99.90
63260;DHT22;49390;51.380;0.098;2023-02-15T19:07:59;11.30;99.90
63260;DHT22;49390;51.380;0.098;2023-02-15T19:10:30;11.20;99.90
63260;DHT22;49390;51.380;0.098;2023-02-15T19:13:00;11.20;99.90
63260;DHT22;49390;51.380;0.098;2023-02-15T19:15:29;11.20;99.90
63260;DHT22;49390;51.380;0.098;2023-02-15T19:17:57;11.20;99.90
63260;DHT22;49390;51.380;0.098;2023-02-15T19:20:30;11.10;99.90
63260;DHT22;49390;51.380;0.098;2023-02-15T19:22:59;11.10;99.90
63260;DHT22;49390;51.380;0.098;2023-02-15T19:25:30;11.10;99.90
63260;DHT22;49390;51.380;0.098;2023-02-15T19:27:59;11.00;99.90
63260;DHT22;49390;51.380;0.098;2023-02-15T19:30:29;11.00;99.90
63260;DHT22;49390;51.380;0.098;2023-02-15T19:32:59;11.00;99.90
63260;DHT22;49390;51.380;0.098;2023-02-15T19:35:33;11.00;99.90
63260;DHT22;49390;51.380;0.098;2023-02-15T19:38:06;10.90;99.90
63260;DHT22;49390;51.380;0.098;2023-02-15T19:40:35;10.90;99.90
63260;DHT22;49390;51.380;0.098;2023-02-15T19:43:16;10.90;99.90
63260;DHT22;49390;51.380;0.098;2023-02-15T19:45:45;10.80;99.90
63260;DHT22;49390;51.380;0.098;2023-02-15T19:48:13;10.80;99.90